sensor_id;sensor_type;location;lat;lon;timestamp;P1;durP1;ratioP1;P2;durP2;ratioP2
21731;SDS011;11028;51.156;17.130;2024-02-21T00:01:25;22.98;;;5.40;;
21731;SDS011;11028;51.156;17.130;2024-02-21T00:08:43;26.20;;;6.45;;
21731;SDS011;11028;51.156;17.130;2024-02-21T00:16:02;26.65;;;6.40;;
21731;SDS011;11028;51.156;17.130;2024-02-21T00:23:22;19.45;;;6.00;;
21731;SDS011;11028;51.156;17.130;2024-02-21T00:30:41;25.90;;;6.75;;
21731;SDS011;11028;51.156;17.130;2024-02-21T00:38:03;18.92;;;5.85;;
21731;SDS011;11028;51.156;17.130;2024-02-21T00:45:23;25.92;;;5.07;;
21731;SDS011;11028;51.156;17.130;2024-02-21T00:52:45;20.38;;;5.38;;
21731;SDS011;11028;51.156;17.130;2024-02-21T01:00:04;15.35;;;4.47;;
21731;SDS011;11028;51.156;17.130;2024-02-21T01:07:26;16.80;;;4.22;;
21731;SDS011;11028;51.156;17.130;2024-02-21T01:14:44;19.38;;;4.93;;
21731;SDS011;11028;51.156;17.130;2024-02-21T01:22:12;13.93;;;4.40;;
21731;SDS011;11028;51.156;17.130;2024-02-21T01:29:33;20.05;;;4.20;;
21731;SDS011;11028;51.156;17.130;2024-02-21T01:36:51;13.30;;;3.47;;
21731;SDS011;11028;51.156;17.130;2024-02-21T01:44:11;29.33;;;5.03;;
21731;SDS011;11028;51.156;17.130;2024-02-21T01:51:31;16.80;;;5.28;;
21731;SDS011;11028;51.156;17.130;2024-02-21T01:58:50;21.00;;;5.18;;
21731;SDS011;11028;51.156;17.130;2024-02-21T02:06:09;12.55;;;4.97;;
21731;SDS011;11028;51.156;17.130;2024-02-21T02:13:31;17.83;;;4.60;;
21731;SDS011;11028;51.156;17.130;2024-02-21T02:20:50;20.40;;;5.45;;
21731;SDS011;11028;51.156;17.130;2024-02-21T02:28:10;17.17;;;4.65;;
21731;SDS011;11028;51.156;17.130;2024-02-21T02:35:28;21.23;;;5.00;;
21731;SDS011;11028;51.156;17.130;2024-02-21T02:42:47;17.42;;;4.55;;
21731;SDS011;11028;51.156;17.130;2024-02-21T02:50:13;20.43;;;4.90;;
21731;SDS011;11028;51.156;17.130;2024-02-21T02:57:32;13.38;;;5.22;;
21731;SDS011;11028;51.156;17.130;2024-02-21T03:04:50;15.82;;;4.47;;
21731;SDS011;11028;51.156;17.130;2024-02-21T03:12:11;19.20;;;4.72;;
21731;SDS011;11028;51.156;17.130;2024-02-21T03:19:35;20.98;;;5.55;;
21731;SDS011;11028;51.156;17.130;2024-02-21T03:26:55;20.23;;;5.43;;
21731;SDS011;11028;51.156;17.130;2024-02-21T03:34:17;12.77;;;4.53;;
21731;SDS011;11028;51.156;17.130;2024-02-21T03:41:35;11.98;;;5.07;;
21731;SDS011;11028;51.156;17.130;2024-02-21T03:48:54;22.45;;;5.90;;
21731;SDS011;11028;51.156;17.130;2024-02-21T03:56:14;15.15;;;5.43;;
21731;SDS011;11028;51.156;17.130;2024-02-21T04:03:32;11.95;;;4.88;;
21731;SDS011;11028;51.156;17.130;2024-02-21T04:10:51;17.73;;;5.32;;
21731;SDS011;11028;51.156;17.130;2024-02-21T04:18:11;18.45;;;5.32;;
21731;SDS011;11028;51.156;17.130;2024-02-21T04:25:29;15.30;;;6.07;;
21731;SDS011;11028;51.156;17.130;2024-02-21T04:32:48;14.50;;;5.35;;
21731;SDS011;11028;51.156;17.130;2024-02-21T04:40:09;16.75;;;5.50;;
21731;SDS011;11028;51.156;17.130;2024-02-21T04:47:29;17.45;;;5.07;;
21731;SDS011;11028;51.156;17.130;2024-02-21T04:54:49;20.35;;;5.60;;
21731;SDS011;11028;51.156;17.130;2024-02-21T05:02:09;14.55;;;5.78;;
21731;SDS011;11028;51.156;17.130;2024-02-21T05:09:31;17.90;;;6.18;;
21731;SDS011;11028;51.156;17.130;2024-02-21T05:16:51;17.80;;;6.82;;
21731;SDS011;11028;51.156;17.130;2024-02-21T05:24:11;22.35;;;8.00;;
21731;SDS011;11028;51.156;17.130;2024-02-21T05:31:42;18.75;;;7.95;;
21731;SDS011;11028;51.156;17.130;2024-02-21T05:39:14;19.95;;;7.93;;
21731;SDS011;11028;51.156;17.130;2024-02-21T05:53:54;19.50;;;7.03;;
21731;SDS011;11028;51.156;17.130;2024-02-21T06:01:15;24.65;;;7.25;;
21731;SDS011;11028;51.156;17.130;2024-02-21T06:08:34;20.83;;;7.85;;
21731;SDS011;11028;51.156;17.130;2024-02-21T06:15:56;18.77;;;6.60;;
21731;SDS011;11028;51.156;17.130;2024-02-21T06:23:18;17.95;;;6.43;;
21731;SDS011;11028;51.156;17.130;2024-02-21T06:30:37;7.73;;;3.23;;
21731;SDS011;11028;51.156;17.130;2024-02-21T06:37:56;10.43;;;4.65;;
21731;SDS011;11028;51.156;17.130;2024-02-21T06:45:17;12.63;;;5.05;;
21731;SDS011;11028;51.156;17.130;2024-02-21T06:52:36;18.15;;;5.40;;
21731;SDS011;11028;51.156;17.130;2024-02-21T06:59:55;14.77;;;5.10;;
21731;SDS011;11028;51.156;17.130;2024-02-21T07:07:15;12.90;;;5.03;;
21731;SDS011;11028;51.156;17.130;2024-02-21T07:14:33;14.93;;;4.88;;
21731;SDS011;11028;51.156;17.130;2024-02-21T07:21:54;11.18;;;5.18;;
21731;SDS011;11028;51.156;17.130;2024-02-21T07:29:15;21.30;;;6.25;;
21731;SDS011;11028;51.156;17.130;2024-02-21T07:36:34;16.02;;;5.40;;
21731;SDS011;11028;51.156;17.130;2024-02-21T07:43:53;12.63;;;5.57;;
21731;SDS011;11028;51.156;17.130;2024-02-21T07:51:13;20.13;;;6.22;;
21731;SDS011;11028;51.156;17.130;2024-02-21T07:58:34;15.82;;;5.75;;
21731;SDS011;11028;51.156;17.130;2024-02-21T08:05:53;13.98;;;5.13;;
21731;SDS011;11028;51.156;17.130;2024-02-21T08:13:13;24.70;;;6.13;;
21731;SDS011;11028;51.156;17.130;2024-02-21T08:20:31;24.25;;;6.30;;
21731;SDS011;11028;51.156;17.130;2024-02-21T08:27:49;18.65;;;6.35;;
21731;SDS011;11028;51.156;17.130;2024-02-21T08:35:10;16.65;;;5.90;;
21731;SDS011;11028;51.156;17.130;2024-02-21T08:42:29;17.65;;;6.85;;
21731;SDS011;11028;51.156;17.130;2024-02-21T08:49:50;19.17;;;6.90;;
21731;SDS011;11028;51.156;17.130;2024-02-21T08:57:10;18.48;;;6.28;;
21731;SDS011;11028;51.156;17.130;2024-02-21T09:04:30;18.42;;;6.82;;
21731;SDS011;11028;51.156;17.130;2024-02-21T09:11:49;21.75;;;7.50;;
21731;SDS011;11028;51.156;17.130;2024-02-21T09:19:09;21.42;;;7.13;;
21731;SDS011;11028;51.156;17.130;2024-02-21T09:26:28;24.25;;;7.32;;
21731;SDS011;11028;51.156;17.130;2024-02-21T09:33:46;18.52;;;5.82;;
21731;SDS011;11028;51.156;17.130;2024-02-21T09:41:08;18.48;;;7.40;;
21731;SDS011;11028;51.156;17.130;2024-02-21T09:48:41;12.10;;;5.87;;
21731;SDS011;11028;51.156;17.130;2024-02-21T09:56:10;18.05;;;5.60;;
21731;SDS011;11028;51.156;17.130;2024-02-21T10:03:31;14.82;;;6.20;;
21731;SDS011;11028;51.156;17.130;2024-02-21T10:10:50;16.23;;;6.10;;
21731;SDS011;11028;51.156;17.130;2024-02-21T10:18:11;20.45;;;7.15;;
21731;SDS011;11028;51.156;17.130;2024-02-21T10:25:30;15.30;;;6.03;;
21731;SDS011;11028;51.156;17.130;2024-02-21T10:32:49;17.40;;;7.53;;
21731;SDS011;11028;51.156;17.130;2024-02-21T10:40:10;16.30;;;7.53;;
21731;SDS011;11028;51.156;17.130;2024-02-21T10:47:30;22.35;;;7.32;;
21731;SDS011;11028;51.156;17.130;2024-02-21T10:54:52;16.00;;;6.15;;
21731;SDS011;11028;51.156;17.130;2024-02-21T11:02:15;14.52;;;6.63;;
21731;SDS011;11028;51.156;17.130;2024-02-21T11:09:34;20.52;;;7.38;;
21731;SDS011;11028;51.156;17.130;2024-02-21T11:16:53;15.35;;;7.00;;
21731;SDS011;11028;51.156;17.130;2024-02-21T11:24:14;23.23;;;7.30;;
21731;SDS011;11028;51.156;17.130;2024-02-21T11:31:44;18.63;;;7.20;;
21731;SDS011;11028;51.156;17.130;2024-02-21T11:39:03;18.15;;;7.90;;
21731;SDS011;11028;51.156;17.130;2024-02-21T11:46:24;14.27;;;7.07;;
21731;SDS011;11028;51.156;17.130;2024-02-21T11:53:43;14.20;;;7.60;;
21731;SDS011;11028;51.156;17.130;2024-02-21T12:01:18;17.40;;;8.57;;
21731;SDS011;11028;51.156;17.130;2024-02-21T12:08:42;22.55;;;9.90;;
21731;SDS011;11028;51.156;17.130;2024-02-21T12:23:18;18.10;;;9.23;;
21731;SDS011;11028;51.156;17.130;2024-02-21T12:30:38;17.83;;;9.55;;
21731;SDS011;11028;51.156;17.130;2024-02-21T12:37:57;17.10;;;9.80;;
21731;SDS011;11028;51.156;17.130;2024-02-21T12:45:17;16.80;;;9.98;;
21731;SDS011;11028;51.156;17.130;2024-02-21T12:52:37;16.00;;;7.25;;
21731;SDS011;11028;51.156;17.130;2024-02-21T12:59:55;19.05;;;7.32;;
21731;SDS011;11028;51.156;17.130;2024-02-21T13:07:13;16.42;;;7.97;;
21731;SDS011;11028;51.156;17.130;2024-02-21T13:14:33;20.17;;;6.38;;
21731;SDS011;11028;51.156;17.130;2024-02-21T13:21:57;12.80;;;6.40;;
21731;SDS011;11028;51.156;17.130;2024-02-21T13:29:15;12.15;;;5.75;;
21731;SDS011;11028;51.156;17.130;2024-02-21T13:36:35;10.63;;;5.05;;
21731;SDS011;11028;51.156;17.130;2024-02-21T13:43:53;13.18;;;4.50;;
21731;SDS011;11028;51.156;17.130;2024-02-21T13:51:12;16.52;;;5.10;;
21731;SDS011;11028;51.156;17.130;2024-02-21T13:58:32;10.13;;;4.60;;
21731;SDS011;11028;51.156;17.130;2024-02-21T14:05:52;11.65;;;5.30;;
21731;SDS011;11028;51.156;17.130;2024-02-21T14:13:11;10.43;;;5.22;;
21731;SDS011;11028;51.156;17.130;2024-02-21T14:20:31;11.93;;;5.10;;
21731;SDS011;11028;51.156;17.130;2024-02-21T14:27:50;18.60;;;5.38;;
21731;SDS011;11028;51.156;17.130;2024-02-21T14:35:08;10.55;;;5.38;;
21731;SDS011;11028;51.156;17.130;2024-02-21T14:42:29;9.43;;;4.68;;
21731;SDS011;11028;51.156;17.130;2024-02-21T14:49:51;12.05;;;5.03;;
21731;SDS011;11028;51.156;17.130;2024-02-21T14:57:10;19.05;;;5.97;;
21731;SDS011;11028;51.156;17.130;2024-02-21T15:04:31;11.25;;;5.97;;
21731;SDS011;11028;51.156;17.130;2024-02-21T15:11:49;19.60;;;6.68;;
21731;SDS011;11028;51.156;17.130;2024-02-21T15:19:08;15.80;;;6.90;;
21731;SDS011;11028;51.156;17.130;2024-02-21T15:26:28;18.95;;;6.30;;
21731;SDS011;11028;51.156;17.130;2024-02-21T15:33:47;16.52;;;6.75;;
21731;SDS011;11028;51.156;17.130;2024-02-21T15:41:05;15.77;;;7.15;;
21731;SDS011;11028;51.156;17.130;2024-02-21T15:48:25;12.02;;;6.43;;
21731;SDS011;11028;51.156;17.130;2024-02-21T15:55:44;15.15;;;7.28;;
21731;SDS011;11028;51.156;17.130;2024-02-21T16:03:03;14.63;;;6.15;;
21731;SDS011;11028;51.156;17.130;2024-02-21T16:10:23;12.55;;;6.82;;
21731;SDS011;11028;51.156;17.130;2024-02-21T16:17:42;18.90;;;7.20;;
21731;SDS011;11028;51.156;17.130;2024-02-21T16:25:01;15.93;;;7.53;;
21731;SDS011;11028;51.156;17.130;2024-02-21T16:32:22;15.98;;;7.43;;
21731;SDS011;11028;51.156;17.130;2024-02-21T16:39:44;22.23;;;8.15;;
21731;SDS011;11028;51.156;17.130;2024-02-21T16:47:04;18.50;;;7.82;;
21731;SDS011;11028;51.156;17.130;2024-02-21T16:54:27;21.02;;;7.25;;
21731;SDS011;11028;51.156;17.130;2024-02-21T17:01:45;13.98;;;8.05;;
21731;SDS011;11028;51.156;17.130;2024-02-21T17:09:08;17.85;;;7.05;;
21731;SDS011;11028;51.156;17.130;2024-02-21T17:16:31;21.25;;;7.80;;
21731;SDS011;11028;51.156;17.130;2024-02-21T17:23:49;18.90;;;9.35;;
21731;SDS011;11028;51.156;17.130;2024-02-21T17:31:09;18.40;;;9.73;;
21731;SDS011;11028;51.156;17.130;2024-02-21T17:38:32;16.38;;;8.85;;
21731;SDS011;11028;51.156;17.130;2024-02-21T17:45:51;25.73;;;8.82;;
21731;SDS011;11028;51.156;17.130;2024-02-21T17:53:13;23.90;;;10.05;;
21731;SDS011;11028;51.156;17.130;2024-02-21T18:00:35;24.17;;;11.23;;
21731;SDS011;11028;51.156;17.130;2024-02-21T18:07:58;32.17;;;11.85;;
21731;SDS011;11028;51.156;17.130;2024-02-21T18:15:17;22.35;;;12.02;;
21731;SDS011;11028;51.156;17.130;2024-02-21T18:22:39;27.63;;;12.68;;
21731;SDS011;11028;51.156;17.130;2024-02-21T18:30:04;23.65;;;13.15;;
21731;SDS011;11028;51.156;17.130;2024-02-21T18:37:23;29.27;;;13.95;;
21731;SDS011;11028;51.156;17.130;2024-02-21T18:44:45;30.52;;;13.65;;
21731;SDS011;11028;51.156;17.130;2024-02-21T18:52:06;23.98;;;12.55;;
21731;SDS011;11028;51.156;17.130;2024-02-21T18:59:25;28.15;;;13.00;;
21731;SDS011;11028;51.156;17.130;2024-02-21T19:06:46;31.80;;;13.07;;
21731;SDS011;11028;51.156;17.130;2024-02-21T19:14:09;28.90;;;13.15;;
21731;SDS011;11028;51.156;17.130;2024-02-21T19:21:28;28.33;;;13.05;;
21731;SDS011;11028;51.156;17.130;2024-02-21T19:28:48;30.27;;;13.43;;
21731;SDS011;11028;51.156;17.130;2024-02-21T19:36:08;24.15;;;12.38;;
21731;SDS011;11028;51.156;17.130;2024-02-21T19:43:26;29.33;;;13.18;;
21731;SDS011;11028;51.156;17.130;2024-02-21T19:50:46;29.05;;;12.88;;
21731;SDS011;11028;51.156;17.130;2024-02-21T19:58:06;30.98;;;13.30;;
21731;SDS011;11028;51.156;17.130;2024-02-21T20:05:24;28.63;;;13.48;;
21731;SDS011;11028;51.156;17.130;2024-02-21T20:12:44;41.85;;;13.90;;
21731;SDS011;11028;51.156;17.130;2024-02-21T20:20:03;27.80;;;12.18;;
21731;SDS011;11028;51.156;17.130;2024-02-21T20:27:23;36.28;;;12.05;;
21731;SDS011;11028;51.156;17.130;2024-02-21T20:34:43;24.35;;;10.18;;
21731;SDS011;11028;51.156;17.130;2024-02-21T20:42:04;25.25;;;11.25;;
21731;SDS011;11028;51.156;17.130;2024-02-21T20:49:23;19.65;;;10.40;;
21731;SDS011;11028;51.156;17.130;2024-02-21T20:56:46;24.05;;;11.43;;
21731;SDS011;11028;51.156;17.130;2024-02-21T21:04:04;29.30;;;13.23;;
21731;SDS011;11028;51.156;17.130;2024-02-21T21:11:23;27.85;;;12.95;;
21731;SDS011;11028;51.156;17.130;2024-02-21T21:18:56;30.08;;;12.90;;
21731;SDS011;11028;51.156;17.130;2024-02-21T21:26:15;33.28;;;13.15;;
21731;SDS011;11028;51.156;17.130;2024-02-21T21:33:33;29.60;;;12.73;;
21731;SDS011;11028;51.156;17.130;2024-02-21T21:40:56;26.48;;;13.15;;
21731;SDS011;11028;51.156;17.130;2024-02-21T21:48:15;31.33;;;13.43;;
21731;SDS011;11028;51.156;17.130;2024-02-21T21:55:34;30.00;;;13.27;;
21731;SDS011;11028;51.156;17.130;2024-02-21T22:02:54;25.60;;;11.90;;
21731;SDS011;11028;51.156;17.130;2024-02-21T22:10:13;23.98;;;9.77;;
21731;SDS011;11028;51.156;17.130;2024-02-21T22:17:32;23.65;;;10.90;;
21731;SDS011;11028;51.156;17.130;2024-02-21T22:24:52;25.92;;;10.48;;
21731;SDS011;11028;51.156;17.130;2024-02-21T22:32:10;18.92;;;10.07;;
21731;SDS011;11028;51.156;17.130;2024-02-21T22:39:30;18.63;;;8.35;;
21731;SDS011;11028;51.156;17.130;2024-02-21T22:46:51;16.02;;;8.32;;
21731;SDS011;11028;51.156;17.130;2024-02-21T22:54:13;24.13;;;8.73;;
21731;SDS011;11028;51.156;17.130;2024-02-21T23:01:35;19.95;;;8.25;;
21731;SDS011;11028;51.156;17.130;2024-02-21T23:08:55;17.88;;;7.50;;
21731;SDS011;11028;51.156;17.130;2024-02-21T23:16:14;12.75;;;6.53;;
21731;SDS011;11028;51.156;17.130;2024-02-21T23:23:34;12.95;;;6.35;;
21731;SDS011;11028;51.156;17.130;2024-02-21T23:30:54;15.00;;;6.63;;
21731;SDS011;11028;51.156;17.130;2024-02-21T23:38:13;14.38;;;6.13;;
21731;SDS011;11028;51.156;17.130;2024-02-21T23:45:31;14.38;;;5.88;;
21731;SDS011;11028;51.156;17.130;2024-02-21T23:52:52;8.13;;;4.97;;
